createdAt,value
2023-03-08T00:00:27.237Z,14.67
2023-03-08T00:02:56.594Z,9.17
2023-03-08T00:05:23.085Z,13.70
2023-03-08T00:07:52.772Z,14.70
2023-03-08T00:10:19.478Z,14.33
2023-03-08T00:12:45.995Z,13.33
2023-03-08T00:15:15.590Z,14.77
2023-03-08T00:17:44.822Z,10.20
2023-03-08T00:20:12.671Z,10.37
2023-03-08T00:22:40.285Z,9.13
2023-03-08T00:25:08.925Z,9.47
2023-03-08T00:27:36.945Z,10.07
2023-03-08T00:30:06.186Z,12.30
2023-03-08T00:32:32.905Z,12.77
2023-03-08T00:34:59.720Z,11.53
2023-03-08T00:37:26.157Z,8.83
2023-03-08T00:39:53.669Z,5.90
2023-03-08T00:42:21.402Z,8.97
2023-03-08T00:44:48.477Z,8.97
2023-03-08T00:47:15.586Z,8.43
2023-03-08T00:49:42.844Z,9.80
2023-03-08T00:52:10.188Z,6.90
2023-03-08T00:54:36.863Z,9.60
2023-03-08T00:57:03.538Z,9.10
2023-03-08T00:59:30.054Z,7.30
2023-03-08T01:01:56.642Z,10.57
2023-03-08T01:04:23.091Z,5.87
2023-03-08T01:06:49.521Z,6.03
2023-03-08T01:09:15.986Z,5.10
2023-03-08T01:11:43.280Z,3.93
2023-03-08T01:14:09.861Z,5.80
2023-03-08T01:16:37.038Z,4.90
2023-03-08T01:19:04.614Z,5.47
2023-03-08T01:21:32.347Z,4.57
2023-03-08T01:23:59.985Z,6.73
2023-03-08T01:26:27.500Z,3.43
2023-03-08T01:28:54.348Z,4.23
2023-03-08T01:31:28.132Z,2.77
2023-03-08T01:33:54.984Z,4.30
2023-03-08T01:36:23.469Z,4.20
2023-03-08T01:38:50.769Z,5.37
2023-03-08T01:41:28.966Z,4.33
2023-03-08T01:43:56.365Z,8.23
2023-03-08T01:46:28.515Z,6.70
2023-03-08T01:49:02.550Z,5.03
2023-03-08T01:51:33.865Z,4.17
2023-03-08T01:54:06.001Z,3.00
2023-03-08T01:56:33.233Z,4.03
2023-03-08T01:59:00.549Z,4.53
2023-03-08T02:01:27.617Z,5.13
2023-03-08T02:03:54.142Z,2.87
2023-03-08T02:06:21.854Z,4.83
2023-03-08T02:08:49.581Z,2.27
2023-03-08T02:11:18.969Z,3.93
2023-03-08T02:13:45.833Z,7.63
2023-03-08T02:16:14.781Z,3.87
2023-03-08T02:18:55.448Z,3.90
2023-03-08T02:21:22.819Z,4.60
2023-03-08T02:23:52.561Z,3.23
2023-03-08T02:26:22.502Z,3.83
2023-03-08T02:28:52.203Z,4.00
2023-03-08T02:31:20.833Z,5.23
2023-03-08T02:33:47.344Z,4.03
2023-03-08T02:36:13.822Z,5.10
2023-03-08T02:38:40.339Z,2.40
2023-03-08T02:41:06.849Z,4.67
2023-03-08T02:43:33.715Z,4.90
2023-03-08T02:46:00.314Z,3.17
2023-03-08T02:48:26.781Z,2.83
2023-03-08T02:50:53.284Z,5.57
2023-03-08T02:53:22.430Z,2.40
2023-03-08T02:55:51.020Z,3.20
2023-03-08T02:58:17.608Z,4.53
2023-03-08T03:00:44.122Z,6.47
2023-03-08T03:03:10.579Z,5.93
2023-03-08T03:05:43.170Z,4.40
2023-03-08T03:08:10.772Z,4.90
2023-03-08T03:10:41.806Z,3.30
2023-03-08T03:13:08.641Z,4.10
2023-03-08T03:15:39.025Z,3.70
2023-03-08T03:18:05.956Z,3.80
2023-03-08T03:20:33.608Z,2.53
2023-03-08T03:23:00.239Z,5.37
2023-03-08T03:25:26.814Z,3.13
2023-03-08T03:27:54.888Z,4.63
2023-03-08T03:30:21.793Z,3.60
2023-03-08T03:32:48.274Z,3.90
2023-03-08T03:35:14.923Z,3.07
2023-03-08T03:37:41.375Z,2.80
2023-03-08T03:40:08.700Z,7.77
2023-03-08T03:42:35.174Z,3.20
2023-03-08T03:45:01.597Z,2.27
2023-03-08T03:47:28.852Z,3.20
2023-03-08T03:49:55.346Z,6.40
2023-03-08T03:52:21.797Z,2.70
2023-03-08T03:54:48.266Z,3.37
2023-03-08T03:57:14.712Z,2.13
2023-03-08T03:59:41.246Z,2.73
2023-03-08T04:02:07.777Z,3.07
2023-03-08T04:04:34.311Z,5.13
2023-03-08T04:07:00.772Z,2.60
2023-03-08T04:09:27.331Z,2.10
2023-03-08T04:11:55.814Z,6.30
2023-03-08T04:14:22.397Z,2.43
2023-03-08T04:16:48.918Z,2.47
2023-03-08T04:19:15.415Z,2.57
2023-03-08T04:21:41.926Z,1.50
2023-03-08T04:24:08.563Z,2.30
2023-03-08T04:26:35.249Z,2.53
2023-03-08T04:29:05.644Z,2.60
2023-03-08T04:31:34.904Z,1.70
2023-03-08T04:34:02.466Z,3.70
2023-03-08T04:36:29.185Z,2.70
2023-03-08T04:38:56.542Z,1.37
2023-03-08T04:41:23.401Z,1.87
2023-03-08T04:43:52.803Z,1.87
2023-03-08T04:46:23.186Z,1.97
2023-03-08T04:48:52.786Z,2.03
2023-03-08T04:51:21.447Z,1.40
2023-03-08T04:53:48.027Z,2.07
2023-03-08T04:56:16.457Z,2.50
2023-03-08T04:58:43.312Z,1.10
2023-03-08T05:01:15.033Z,1.67
2023-03-08T05:03:41.731Z,1.40
2023-03-08T05:06:09.461Z,1.43
2023-03-08T05:08:36.211Z,1.10
2023-03-08T05:11:04.656Z,3.20
2023-03-08T05:13:33.969Z,2.23
2023-03-08T05:16:01.277Z,3.03
2023-03-08T05:18:28.418Z,1.50
2023-03-08T05:21:05.102Z,3.10
2023-03-08T05:23:32.350Z,1.17
2023-03-08T05:26:04.057Z,1.73
2023-03-08T05:28:32.910Z,1.33
2023-03-08T05:31:07.174Z,1.13
2023-03-08T05:33:35.129Z,0.80
2023-03-08T05:36:01.878Z,2.63
2023-03-08T05:38:32.303Z,1.50
2023-03-08T05:41:06.541Z,0.60
2023-03-08T05:43:33.629Z,1.30
2023-03-08T05:46:07.485Z,3.80
2023-03-08T05:48:35.636Z,1.43
2023-03-08T05:51:06.973Z,1.53
2023-03-08T05:53:33.790Z,2.23
2023-03-08T05:56:15.811Z,1.57
2023-03-08T05:58:46.716Z,1.60
2023-03-08T06:01:18.024Z,1.10
2023-03-08T06:03:46.660Z,1.10
2023-03-08T06:06:13.662Z,1.73
2023-03-08T06:08:40.427Z,0.97
2023-03-08T06:11:08.606Z,0.80
2023-03-08T06:13:35.584Z,3.73
2023-03-08T06:16:03.373Z,1.97
2023-03-08T06:18:34.128Z,4.80
2023-03-08T06:21:15.434Z,2.23
2023-03-08T06:23:45.605Z,3.40
2023-03-08T06:26:12.781Z,1.33
2023-03-08T06:28:42.666Z,1.93
2023-03-08T06:31:14.723Z,0.60
2023-03-08T06:33:41.613Z,1.87
2023-03-08T06:36:13.250Z,0.80
2023-03-08T06:38:41.062Z,0.63
2023-03-08T06:41:09.553Z,0.87
2023-03-08T06:43:36.732Z,0.60
2023-03-08T06:46:08.902Z,2.70
2023-03-08T06:48:36.578Z,1.13
2023-03-08T06:51:04.949Z,0.70
2023-03-08T06:53:32.343Z,0.70
2023-03-08T06:56:06.836Z,0.70
2023-03-08T06:58:34.971Z,0.67
2023-03-08T07:01:04.413Z,0.87
2023-03-08T07:03:32.796Z,0.50
2023-03-08T07:06:05.497Z,0.80
2023-03-08T07:08:32.674Z,1.50
2023-03-08T07:11:02.988Z,1.05
2023-03-08T07:13:33.479Z,1.25
2023-03-08T07:16:11.572Z,0.85
2023-03-08T07:18:38.596Z,2.28
2023-03-08T07:21:05.997Z,2.10
2023-03-08T07:23:33.170Z,0.68
2023-03-08T07:26:10.839Z,1.33
2023-03-08T07:28:37.923Z,0.90
2023-03-08T07:31:04.943Z,0.63
2023-03-08T07:33:32.542Z,0.40
2023-03-08T07:36:05.418Z,0.40
2023-03-08T07:38:33.177Z,1.52
2023-03-08T07:41:02.409Z,1.25
2023-03-08T07:43:31.906Z,0.30
2023-03-08T07:46:02.660Z,2.53
2023-03-08T07:48:31.293Z,0.60
2023-03-08T07:51:03.176Z,0.47
2023-03-08T07:53:35.975Z,0.32
2023-03-08T07:56:03.475Z,0.30
2023-03-08T07:58:33.031Z,0.43
2023-03-08T08:01:08.790Z,1.63
2023-03-08T08:03:35.370Z,0.40
2023-03-08T08:06:05.021Z,0.75
2023-03-08T08:08:31.924Z,2.45
2023-03-08T08:11:12.918Z,0.57
2023-03-08T08:13:39.848Z,1.02
2023-03-08T08:16:09.806Z,2.17
2023-03-08T08:18:36.498Z,2.22
2023-03-08T08:21:10.331Z,1.35
2023-03-08T08:23:37.261Z,0.85
2023-03-08T08:26:20.626Z,8.10
2023-03-08T08:28:52.231Z,0.85
2023-03-08T08:31:22.284Z,2.05
2023-03-08T08:33:49.707Z,1.25
2023-03-08T08:36:18.947Z,2.38
2023-03-08T08:38:48.814Z,1.05
2023-03-08T08:41:20.420Z,3.10
2023-03-08T08:43:47.734Z,1.05
2023-03-08T08:46:15.360Z,0.40
2023-03-08T08:48:42.765Z,1.30
2023-03-08T08:51:12.742Z,1.48
2023-03-08T08:53:39.490Z,0.65
2023-03-08T08:56:28.385Z,2.22
2023-03-08T08:59:02.544Z,0.40
2023-03-08T09:01:34.345Z,0.70
2023-03-08T09:04:01.153Z,1.05
2023-03-08T09:06:31.102Z,0.65
2023-03-08T09:09:02.021Z,3.20
2023-03-08T09:11:32.769Z,0.77
2023-03-08T09:14:04.872Z,0.43
2023-03-08T09:16:33.834Z,1.10
2023-03-08T09:19:04.717Z,0.30
2023-03-08T09:21:32.775Z,0.35
2023-03-08T09:24:05.773Z,0.50
2023-03-08T09:26:33.524Z,1.15
2023-03-08T09:29:08.327Z,0.82
2023-03-08T09:31:37.421Z,0.82
2023-03-08T09:34:08.585Z,0.70
2023-03-08T09:36:36.408Z,1.15
2023-03-08T09:39:04.005Z,0.50
2023-03-08T09:41:50.859Z,0.52
2023-03-08T09:45:07.257Z,0.90
2023-03-08T09:48:01.231Z,1.52
2023-03-08T09:50:41.653Z,2.25
2023-03-08T09:53:31.181Z,3.22
2023-03-08T09:56:16.316Z,1.08
2023-03-08T09:58:45.864Z,0.30
2023-03-08T10:01:27.686Z,0.43
2023-03-08T10:04:20.669Z,0.30
2023-03-08T10:07:09.393Z,0.30
2023-03-08T10:09:44.816Z,0.43
2023-03-08T10:12:31.644Z,0.20
2023-03-08T10:15:11.139Z,0.30
2023-03-08T10:17:52.860Z,0.30
2023-03-08T10:20:19.357Z,0.30
2023-03-08T10:22:48.385Z,1.23
2023-03-08T10:25:26.976Z,0.30
2023-03-08T10:27:56.236Z,0.20
2023-03-08T10:30:29.494Z,0.30
2023-03-08T10:33:03.660Z,0.93
2023-03-08T10:35:49.829Z,0.28
2023-03-08T10:38:17.725Z,0.20
2023-03-08T10:40:44.834Z,0.20
2023-03-08T10:43:34.133Z,0.20
2023-03-08T10:46:10.678Z,0.20
2023-03-08T10:48:37.367Z,0.30
2023-03-08T10:51:06.511Z,0.63
2023-03-08T10:53:33.649Z,0.30
2023-03-08T10:56:04.382Z,0.40
2023-03-08T10:58:39.694Z,1.17
2023-03-08T11:01:32.324Z,0.40
2023-03-08T11:04:15.665Z,0.28
2023-03-08T11:06:42.706Z,0.30
2023-03-08T11:09:27.802Z,0.30
2023-03-08T11:11:56.463Z,0.47
2023-03-08T11:14:24.795Z,0.47
2023-03-08T11:17:12.936Z,0.20
2023-03-08T11:20:16.106Z,0.30
2023-03-08T11:22:51.549Z,1.75
2023-03-08T11:25:52.221Z,2.72
2023-03-08T11:28:27.846Z,0.60
2023-03-08T11:31:05.565Z,1.85
2023-03-08T11:33:59.917Z,0.30
2023-03-08T11:36:37.787Z,0.20
2023-03-08T11:39:30.010Z,0.45
2023-03-08T11:42:04.583Z,1.10
2023-03-08T11:44:58.591Z,0.47
2023-03-08T11:47:59.465Z,0.30
2023-03-08T11:50:41.238Z,0.90
2023-03-08T11:53:19.786Z,0.30
2023-03-08T11:56:06.193Z,0.30
2023-03-08T11:58:48.136Z,0.40
2023-03-08T12:01:24.296Z,0.40
2023-03-08T12:03:54.201Z,0.30
2023-03-08T12:06:34.259Z,0.95
2023-03-08T12:09:08.564Z,0.55
2023-03-08T12:11:46.365Z,0.30
2023-03-08T12:14:52.961Z,0.35
2023-03-08T12:17:24.916Z,0.98
2023-03-08T12:19:52.127Z,0.40
2023-03-08T12:22:35.654Z,0.40
2023-03-08T12:25:24.924Z,0.50
2023-03-08T12:28:00.626Z,1.15
2023-03-08T12:30:54.780Z,0.30
2023-03-08T12:33:22.699Z,1.98
2023-03-08T12:35:56.573Z,0.30
2023-03-08T12:38:23.159Z,0.40
2023-03-08T12:40:55.264Z,0.30
2023-03-08T12:43:22.041Z,0.35
2023-03-08T12:46:00.947Z,1.58
2023-03-08T12:48:49.007Z,1.38
2023-03-08T12:51:16.565Z,0.30
2023-03-08T12:53:43.066Z,0.40
2023-03-08T12:56:09.582Z,0.55
2023-03-08T12:58:48.576Z,1.10
2023-03-08T13:01:36.535Z,0.22
2023-03-08T13:04:38.952Z,0.52
2023-03-08T13:07:12.938Z,0.40
2023-03-08T13:09:42.456Z,1.05
2023-03-08T13:12:08.837Z,1.23
2023-03-08T13:15:11.339Z,4.05
2023-03-08T13:17:48.949Z,1.95
2023-03-08T13:20:40.454Z,0.50
2023-03-08T13:23:21.853Z,0.50
2023-03-08T13:26:13.158Z,1.23
2023-03-08T13:28:47.782Z,0.40
2023-03-08T13:31:21.758Z,0.70
2023-03-08T13:33:51.524Z,0.30
2023-03-08T13:36:30.123Z,0.40
2023-03-08T13:39:10.106Z,0.30
2023-03-08T13:41:39.789Z,0.28
2023-03-08T13:44:15.262Z,0.40
2023-03-08T13:46:43.148Z,0.40
2023-03-08T13:49:27.590Z,0.40
2023-03-08T13:51:56.622Z,1.85
2023-03-08T13:54:29.409Z,1.73
2023-03-08T13:57:02.136Z,1.13
2023-03-08T13:59:29.494Z,0.30
2023-03-08T14:01:56.272Z,1.17
2023-03-08T14:04:25.468Z,0.77
2023-03-08T14:06:57.328Z,0.90
2023-03-08T14:09:24.680Z,0.40
2023-03-08T14:12:02.095Z,0.63
2023-03-08T14:14:35.644Z,1.00
2023-03-08T14:17:03.663Z,0.52
2023-03-08T14:19:32.175Z,0.30
2023-03-08T14:22:01.701Z,0.57
2023-03-08T14:24:31.599Z,0.50
2023-03-08T14:27:02.876Z,0.40
2023-03-08T14:29:32.728Z,0.70
2023-03-08T14:32:02.511Z,2.72
2023-03-08T14:34:36.055Z,2.53
2023-03-08T14:37:04.751Z,0.85
2023-03-08T14:39:33.493Z,0.65
2023-03-08T14:42:18.078Z,0.40
2023-03-08T14:44:51.749Z,0.52
2023-03-08T14:47:25.452Z,1.65
2023-03-08T14:50:19.321Z,2.03
2023-03-08T14:52:52.392Z,2.75
2023-03-08T14:55:25.021Z,1.67
2023-03-08T14:57:58.237Z,1.35
2023-03-08T15:00:27.661Z,4.82
2023-03-08T15:02:54.599Z,1.88
2023-03-08T15:05:29.067Z,3.03
2023-03-08T15:07:57.861Z,2.95
2023-03-08T15:10:29.260Z,0.90
2023-03-08T15:12:56.066Z,4.00
2023-03-08T15:15:24.553Z,5.95
2023-03-08T15:17:51.781Z,2.17
2023-03-08T15:20:19.252Z,5.50
2023-03-08T15:22:49.523Z,2.03
2023-03-08T15:25:23.179Z,1.95
2023-03-08T15:27:49.939Z,4.75
2023-03-08T15:30:20.670Z,3.58
2023-03-08T15:32:47.780Z,4.70
2023-03-08T15:35:14.553Z,4.30
2023-03-08T15:37:42.019Z,5.05
2023-03-08T15:40:14.747Z,3.83
2023-03-08T15:42:41.202Z,8.27
2023-03-08T15:45:13.796Z,5.28
2023-03-08T15:47:41.158Z,7.07
2023-03-08T15:50:17.719Z,4.30
2023-03-08T15:52:45.340Z,11.32
2023-03-08T15:55:13.804Z,3.00
2023-03-08T15:57:40.891Z,8.38
2023-03-08T16:00:13.038Z,3.72
2023-03-08T16:02:40.391Z,9.13
2023-03-08T16:05:10.610Z,5.25
2023-03-08T16:07:37.653Z,10.73
2023-03-08T16:10:12.868Z,2.78
2023-03-08T16:12:40.657Z,7.13
2023-03-08T16:15:11.409Z,6.45
2023-03-08T16:17:41.148Z,5.53
2023-03-08T16:20:13.205Z,3.15
2023-03-08T16:22:42.980Z,7.07
2023-03-08T16:25:13.381Z,4.47
2023-03-08T16:27:42.435Z,3.72
2023-03-08T16:30:13.285Z,5.53
2023-03-08T16:32:40.428Z,4.55
2023-03-08T16:35:10.806Z,4.38
2023-03-08T16:37:40.373Z,3.17
2023-03-08T16:40:11.961Z,3.53
2023-03-08T16:42:41.458Z,5.18
2023-03-08T16:45:15.005Z,4.18
2023-03-08T16:47:41.516Z,5.00
2023-03-08T16:50:13.359Z,5.13
2023-03-08T16:52:42.736Z,4.55
2023-03-08T16:55:10.269Z,2.97
2023-03-08T16:57:39.929Z,7.15
2023-03-08T17:00:17.285Z,4.95
2023-03-08T17:02:45.405Z,3.42
2023-03-08T17:05:12.849Z,4.65
2023-03-08T17:07:42.080Z,5.95
2023-03-08T17:10:11.850Z,5.63
2023-03-08T17:12:41.943Z,10.63
2023-03-08T17:15:12.355Z,4.05
2023-03-08T17:17:41.938Z,4.05
2023-03-08T17:20:10.252Z,5.22
2023-03-08T17:22:43.876Z,5.03
2023-03-08T17:25:10.374Z,4.07
2023-03-08T17:27:40.465Z,8.38
2023-03-08T17:30:10.120Z,6.43
2023-03-08T17:32:39.931Z,3.67
2023-03-08T17:35:09.461Z,4.72
2023-03-08T17:37:44.662Z,2.65
2023-03-08T17:40:13.021Z,4.47
2023-03-08T17:42:39.641Z,8.02
2023-03-08T17:45:09.985Z,4.03
2023-03-08T17:47:42.553Z,4.18
2023-03-08T17:50:13.314Z,5.05
2023-03-08T17:52:42.652Z,3.58
2023-03-08T17:55:14.712Z,5.05
2023-03-08T17:57:41.234Z,2.60
2023-03-08T18:00:12.730Z,1.60
2023-03-08T18:02:41.970Z,3.00
2023-03-08T18:05:09.976Z,5.15
2023-03-08T18:07:41.643Z,5.65
2023-03-08T18:10:11.912Z,3.30
2023-03-08T18:12:41.817Z,2.38
2023-03-08T18:15:14.462Z,4.95
2023-03-08T18:17:44.572Z,4.78
2023-03-08T18:20:11.639Z,2.67
2023-03-08T18:22:41.968Z,3.42
2023-03-08T18:25:11.740Z,5.07
2023-03-08T18:27:41.764Z,5.50
2023-03-08T18:30:13.002Z,2.53
2023-03-08T18:32:42.825Z,2.20
2023-03-08T18:35:13.322Z,3.70
2023-03-08T18:37:43.127Z,3.33
2023-03-08T18:40:12.629Z,1.55
2023-03-08T18:42:40.025Z,2.90
2023-03-08T18:45:10.487Z,1.77
2023-03-08T18:47:41.756Z,5.00
2023-03-08T18:50:11.897Z,7.95
2023-03-08T18:52:41.290Z,6.63
2023-03-08T18:55:13.391Z,3.03
2023-03-08T18:57:40.538Z,4.72
2023-03-08T19:00:12.288Z,2.22
2023-03-08T19:02:42.088Z,1.17
2023-03-08T19:05:11.766Z,2.25
2023-03-08T19:07:41.659Z,1.52
2023-03-08T19:10:17.935Z,2.70
2023-03-08T19:12:44.801Z,19.35
2023-03-08T19:15:11.604Z,12.77
2023-03-08T19:17:43.645Z,13.50
2023-03-08T19:20:16.801Z,2.33
2023-03-08T19:22:43.629Z,2.55
2023-03-08T19:25:15.966Z,4.13
2023-03-08T19:27:42.790Z,2.10
2023-03-08T19:30:12.859Z,2.67
2023-03-08T19:32:42.837Z,1.63
2023-03-08T19:35:13.589Z,1.75
2023-03-08T19:37:43.193Z,1.50
2023-03-08T19:40:14.082Z,2.53
2023-03-08T19:42:43.312Z,0.98
2023-03-08T19:45:14.079Z,0.73
2023-03-08T19:47:44.214Z,1.92
2023-03-08T19:50:14.369Z,4.82
2023-03-08T19:52:43.658Z,1.80
2023-03-08T19:55:13.962Z,2.38
2023-03-08T19:57:43.365Z,3.08
2023-03-08T20:00:14.988Z,3.92
2023-03-08T20:02:45.840Z,0.68
2023-03-08T20:05:15.461Z,1.80
2023-03-08T20:07:45.037Z,0.93
2023-03-08T20:10:17.724Z,0.75
2023-03-08T20:12:44.630Z,1.50
2023-03-08T20:15:14.428Z,0.77
2023-03-08T20:17:44.142Z,0.70
2023-03-08T20:20:14.040Z,2.00
2023-03-08T20:22:42.773Z,1.00
2023-03-08T20:25:13.183Z,1.48
2023-03-08T20:27:43.738Z,0.40
2023-03-08T20:30:14.991Z,0.88
2023-03-08T20:32:44.539Z,1.20
2023-03-08T20:35:14.986Z,0.63
2023-03-08T20:37:44.354Z,0.50
2023-03-08T20:40:16.638Z,0.40
2023-03-08T20:42:43.106Z,0.40
2023-03-08T20:45:12.314Z,6.45
2023-03-08T20:47:38.942Z,3.53
2023-03-08T20:50:05.952Z,0.90
2023-03-08T20:52:32.525Z,1.50
2023-03-08T20:54:59.095Z,1.75
2023-03-08T20:57:25.701Z,1.55
2023-03-08T20:59:55.541Z,1.27
2023-03-08T21:02:22.051Z,1.13
2023-03-08T21:04:48.551Z,0.93
2023-03-08T21:07:15.039Z,0.98
2023-03-08T21:09:44.868Z,2.50
2023-03-08T21:12:14.529Z,0.77
2023-03-08T21:14:43.735Z,0.50
2023-03-08T21:17:12.511Z,1.35
2023-03-08T21:19:39.067Z,1.95
2023-03-08T21:22:07.207Z,3.05
2023-03-08T21:24:33.649Z,1.90
2023-03-08T21:27:00.103Z,1.00
2023-03-08T21:29:28.097Z,0.90
2023-03-08T21:31:54.605Z,1.20
2023-03-08T21:34:21.569Z,1.85
2023-03-08T21:36:48.046Z,1.23
2023-03-08T21:39:14.666Z,0.80
2023-03-08T21:41:46.350Z,2.90
2023-03-08T21:44:18.925Z,3.53
2023-03-08T21:46:46.524Z,1.02
2023-03-08T21:49:18.828Z,2.92
2023-03-08T21:51:45.314Z,4.18
2023-03-08T21:54:14.116Z,1.27
2023-03-08T21:56:40.830Z,2.10
2023-03-08T21:59:07.402Z,2.47
2023-03-08T22:01:34.397Z,1.33
2023-03-08T22:04:02.854Z,6.97
2023-03-08T22:06:29.459Z,5.32
2023-03-08T22:08:56.511Z,4.03
2023-03-08T22:11:32.011Z,2.75
2023-03-08T22:14:00.905Z,3.72
2023-03-08T22:16:30.856Z,1.33
2023-03-08T22:18:59.704Z,3.53
2023-03-08T22:21:26.555Z,2.55
2023-03-08T22:23:57.060Z,2.33
2023-03-08T22:26:24.689Z,1.92
2023-03-08T22:28:52.418Z,2.15
2023-03-08T22:31:22.290Z,2.33
2023-03-08T22:33:49.510Z,3.45
2023-03-08T22:36:17.905Z,2.88
2023-03-08T22:38:48.965Z,1.52
2023-03-08T22:41:24.643Z,5.90
2023-03-08T22:43:51.515Z,10.35
2023-03-08T22:46:21.650Z,3.38
2023-03-08T22:48:49.719Z,1.05
2023-03-08T22:51:21.352Z,1.90
2023-03-08T22:53:48.461Z,3.75
2023-03-08T22:56:21.503Z,4.38
2023-03-08T22:58:49.653Z,5.00
2023-03-08T23:01:21.810Z,7.47
2023-03-08T23:03:49.796Z,5.82
2023-03-08T23:06:19.982Z,6.60
2023-03-08T23:08:50.453Z,3.50
2023-03-08T23:11:19.511Z,8.48
2023-03-08T23:13:48.259Z,6.25
2023-03-08T23:16:18.766Z,6.72
2023-03-08T23:18:51.606Z,4.63
2023-03-08T23:21:23.509Z,4.40
2023-03-08T23:23:49.998Z,4.40
2023-03-08T23:26:26.794Z,6.65
2023-03-08T23:28:57.749Z,11.98
2023-03-08T23:31:26.386Z,8.52
2023-03-08T23:33:52.900Z,13.98
2023-03-08T23:36:25.593Z,10.98
2023-03-08T23:38:53.317Z,9.38
2023-03-08T23:41:22.587Z,5.60
2023-03-08T23:43:54.424Z,7.88
2023-03-08T23:46:21.034Z,5.07
2023-03-08T23:48:51.836Z,4.72
2023-03-08T23:51:23.174Z,7.50
2023-03-08T23:53:53.427Z,7.43
2023-03-08T23:56:37.684Z,8.10
2023-03-08T23:59:11.844Z,8.73
